METAR Data
IDs: Format: Raw Decoded Include TAF

Data at: 0925 UTC 07 Dec 2021

KDED 070910Z AUTO 00000KT 3/4SM BR OVC002 16/15 A3007 RMK AO2 T01580155
KDED 070850Z AUTO 00000KT 1/2SM FG OVC002 16/16 A3006 RMK AO2 LTG DSNT E T01620158
KDED 070830Z AUTO 00000KT 1/4SM FG OVC002 16/16 A3006 RMK AO2 LTG DSNT E T01640159
KDED 070810Z AUTO 17003KT 7SM OVC002 15/15 A3006 RMK AO2 T01550148
KDED 070750Z AUTO 00000KT 10SM BKN002 15/14 A3006 RMK AO2 T01510143
KDED 070730Z AUTO 00000KT 10SM SCT002 16/15 A3006 RMK AO2 T01580151
KDED 070710Z AUTO 00000KT 10SM CLR 16/15 A3006 RMK AO2 T01570150
KDED 070650Z AUTO 00000KT 5SM BR CLR 15/14 A3007 RMK AO2 T01510144
KDED 070630Z AUTO 00000KT 10SM CLR 17/16 A3007 RMK AO2 T01690162
KDED 070610Z AUTO 28004KT 10SM CLR 16/15 A3007 RMK AO2 T01610155
KDED 070550Z AUTO 00000KT 10SM CLR 15/15 A3007 RMK AO2 T01550147 10224 20154
KDED 070530Z AUTO 00000KT 10SM CLR 17/16 A3008 RMK AO2 LTG DSNT E T01690160
KDED 070510Z AUTO 00000KT 10SM CLR 18/17 A3009 RMK AO2 T01760166
KDED 070450Z AUTO 00000KT 10SM CLR 17/16 A3009 RMK AO2 T01730162
KDED 070430Z AUTO 00000KT 10SM CLR 18/17 A3009 RMK AO2 T01820167
KDED 070410Z AUTO 20003KT 10SM CLR 18/17 A3010 RMK AO2 T01850166
KDED 070350Z AUTO 25003KT 10SM CLR 19/17 A3011 RMK AO2 T01890169
KDED 070330Z AUTO 26004KT 10SM CLR 19/17 A3010 RMK AO2 T01900168
KDED 070310Z AUTO 27003KT 10SM CLR 19/17 A3010 RMK AO2 LTG DSNT E T01890166
KDED 070250Z AUTO 28003KT 10SM CLR 19/16 A3010 RMK AO2 T01860162
KDED 070230Z AUTO 00000KT 10SM CLR 19/16 A3010 RMK AO2 T01920165
KDED 070210Z AUTO 31004KT 10SM CLR 19/16 A3010 RMK AO2 T01860164
KDED 070150Z AUTO 00000KT 10SM CLR 19/16 A3010 RMK AO2 T01910164
KDED 070130Z AUTO 00000KT 10SM CLR 20/16 A3009 RMK AO2 T02010164
KDED 070110Z AUTO 28003KT 10SM CLR 20/17 A3010 RMK AO2 T02040166
KDED 070050Z AUTO 00000KT 10SM CLR 21/17 A3009 RMK AO2 LTG DSNT SE T02060166
KDED 070030Z AUTO 00000KT 10SM CLR 21/17 A3009 RMK AO2 T02130167
KDED 070010Z AUTO 00000KT 10SM SCT050 21/17 A3009 RMK AO2 T02150167
KDED 062350Z AUTO 29004KT 10SM SCT050 22/17 A3009 RMK AO2 LTG DSNT E T02240166 10275 20210 402750130
KDED 062330Z AUTO 28005KT 10SM SCT050 23/17 A3009 RMK AO2 LTG DSNT SE T02250167
KDED 062310Z AUTO 29004KT 10SM SCT050 23/17 A3008 RMK AO2 T02270167
KDED 062250Z AUTO 00000KT 10SM CLR 22/17 A3007 RMK AO2 T02180173
KDED 062230Z AUTO 00000KT 10SM CLR 23/17 A3006 RMK AO2 T02340169
KDED 062210Z AUTO 00000KT 10SM CLR 24/17 A3006 RMK AO2 LTG DSNT E T02440170
KDED 062150Z AUTO 00000KT 10SM CLR 25/17 A3005 RMK AO2 T02490170
KDED 062130Z AUTO 00000KT 10SM CLR 26/17 A3005 RMK AO2 T02560169
KDED 062110Z AUTO 28003KT 10SM SCT044 26/17 A3004 RMK AO2 T02550167
KDED 062050Z AUTO 28005KT 10SM SCT044 SCT050 26/16 A3004 RMK AO2 T02650165
KDED 062030Z AUTO 28006KT 10SM SCT042 SCT050 26/16 A3005 RMK AO2 T02620165
KDED 062010Z AUTO 27004KT 10SM CLR 27/17 A3004 RMK AO2 T02660171
KDED 061950Z AUTO 25004KT 10SM SCT047 26/17 A3005 RMK AO2 T02620169
KDED 061930Z AUTO 24008KT 10SM SCT047 26/16 A3005 RMK AO2 T02620162
KDED 061910Z AUTO 21007KT 10SM SCT045 27/16 A3005 RMK AO2 T02660158
KDED 061850Z AUTO 25007KT 10SM SCT042 BKN048 27/16 A3006 RMK AO2 T02680160
KDED 061830Z AUTO 22007KT 10SM SCT042 BKN048 27/17 A3006 RMK AO2 T02680170
KDED 061810Z AUTO 20009KT 10SM BKN040 BKN046 27/17 A3007 RMK AO2 T02710168
KDED 061750Z AUTO 20006KT 10SM BKN038 BKN046 27/17 A3007 RMK AO2 T02690173 10272 20130
KDED 061730Z AUTO 27006KT 10SM SCT035 BKN044 26/17 A3009 RMK AO2 T02600173
KDED 061710Z AUTO 19004KT 10SM SCT033 26/17 A3010 RMK AO2 T02560174
KDED 061650Z AUTO 19009KT 10SM CLR 26/18 A3011 RMK AO2 T02600178
KDED 061630Z AUTO 18008KT 10SM CLR 25/19 A3011 RMK AO2 T02520185
KDED 061610Z AUTO 19007KT 10SM SCT020 25/19 A3013 RMK AO2 T02460187
KDED 061550Z AUTO 20006KT 10SM CLR 24/19 A3014 RMK AO2 T02430191
KDED 061530Z AUTO 23004KT 10SM CLR 24/19 A3015 RMK AO2 T02360188
KDED 061510Z AUTO 20004KT 10SM CLR 23/19 A3015 RMK AO2 T02310188
KDED 061450Z AUTO 16003KT 10SM CLR 23/19 A3016 RMK AO2 T02260187
KDED 061430Z AUTO 00000KT 10SM CLR 22/18 A3016 RMK AO2 T02170183
KDED 061410Z AUTO 16003KT 10SM CLR 20/18 A3016 RMK AO2 T02040178
KDED 061350Z AUTO 00000KT 10SM CLR 19/16 A3016 RMK AO2 T01880163
KDED 061330Z AUTO 00000KT 10SM CLR 17/15 A3016 RMK AO2 T01710153
KDED 061310Z AUTO 00000KT 10SM CLR 15/14 A3016 RMK AO2 T01520144
KDED 061250Z AUTO 00000KT 5SM BR SCT001 14/13 A3015 RMK AO2 T01390133
KDED 061230Z AUTO 00000KT 1/2SM -RA FG OVC001 13/13 A3015 RMK AO2 T01320126
KDED 061210Z AUTO 00000KT 10SM OVC001 13/12 A3014 RMK AO2 T01330122
KDED 061150Z AUTO 00000KT 10SM BKN001 13/12 A3014 RMK AO2 T01330120 10160 20130
KDED 061130Z AUTO 16003KT 10SM SCT001 13/12 A3013 RMK AO2 T01330122
KDED 061110Z AUTO 00000KT 10SM SCT001 13/12 A3013 RMK AO2 T01310123
KDED 061050Z AUTO 00000KT 10SM CLR 13/13 A3012 RMK AO2 T01330126
KDED 061030Z AUTO 00000KT 10SM CLR 14/13 A3012 RMK AO2 T01360128
KDED 061010Z AUTO 00000KT 10SM CLR 14/13 A3012 RMK AO2 T01380131
KDED 060950Z AUTO 00000KT 10SM CLR 14/13 A3012 RMK AO2 T01390130
KDED 060930Z AUTO 00000KT 10SM CLR 14/13 A3013 RMK AO2 T01390130
KDED 060910Z AUTO 00000KT 10SM CLR 14/14 A3013 RMK AO2 T01440136
KDED 060850Z AUTO 00000KT 10SM CLR 14/13 A3012 RMK AO2 T01410134
KDED 060830Z AUTO 00000KT 10SM CLR 14/14 A3012 RMK AO2 T01440136
KDED 060810Z AUTO 00000KT 10SM CLR 15/14 A3012 RMK AO2 T01470139
KDED 060750Z AUTO 00000KT 10SM CLR 15/14 A3012 RMK AO2 T01490141
KDED 060730Z AUTO 00000KT 10SM SCT039 16/15 A3013 RMK AO2 T01560146
KDED 060710Z AUTO 00000KT 10SM OVC039 16/15 A3013 RMK AO2 T01580147
KDED 060650Z AUTO 00000KT 10SM OVC039 16/14 A3014 RMK AO2 T01560145
KDED 060630Z AUTO 00000KT 10SM BKN039 15/14 A3014 RMK AO2 T01480139
KDED 060610Z AUTO 33003KT 10SM SCT008 15/14 A3014 RMK AO2 T01540143
KDED 060550Z AUTO 00000KT 10SM SCT008 16/15 A3014 RMK AO2 T01570145 10206 20153
KDED 060530Z AUTO 00000KT 10SM CLR 15/14 A3015 RMK AO2
KDED 060510Z AUTO 00000KT 10SM SCT065 15/14 A3016 RMK AO2 T01550142
KDED 060450Z AUTO 00000KT 10SM SCT065 16/15 A3016 RMK AO2 T01640149
KDED 060430Z AUTO 00000KT 10SM BKN065 16/15 A3016 RMK AO2 T01620148
KDED 060410Z AUTO 00000KT 10SM OVC065 16/15 A3016 RMK AO2 T01600146
KDED 060350Z AUTO 00000KT 10SM BKN065 16/15 A3016 RMK AO2 T01610147
KDED 060330Z AUTO 00000KT 10SM CLR 16/15 A3016 RMK AO2 T01600146
KDED 060310Z AUTO 00000KT 10SM CLR 16/15 A3016 RMK AO2 T01600145
KDED 060250Z AUTO 00000KT 10SM CLR 17/15 A3016 RMK AO2 T01680148
KDED 060230Z AUTO 00000KT 10SM CLR 18/15 A3016 RMK AO2 T01760152
KDED 060210Z AUTO 34003KT 10SM CLR 17/15 A3016 RMK AO2 T01740151
KDED 060150Z AUTO 00000KT 10SM SCT050 18/15 A3015 RMK AO2 T01780152
KDED 060130Z AUTO 00000KT 10SM SCT055 19/15 A3015 RMK AO2 T01870154
KDED 060110Z AUTO 00000KT 10SM BKN055 20/15 A3015 RMK AO2 T01980154
KDED 060050Z AUTO 00000KT 10SM OVC055 20/15 A3014 RMK AO2 T02000155
KDED 060030Z AUTO 00000KT 10SM OVC055 20/15 A3014 RMK AO2 T02010155
KDED 060010Z AUTO 00000KT 10SM OVC055 20/15 A3014 RMK AO2 T02040153
KDED 052350Z AUTO 00000KT 10SM OVC055 21/15 A3014 RMK AO2 T02060151 10264 20202 402640108
KDED 052330Z AUTO 00000KT 10SM OVC055 21/15 A3013 RMK AO2 T02060150
KDED 052310Z AUTO 08004KT 10SM SCT055 20/15 A3013 RMK AO2 T02030148
KDED 052250Z AUTO 10006KT 10SM BKN055 21/15 A3013 RMK AO2 T02110149
KDED 052230Z AUTO 10006KT 10SM OVC055 22/15 A3012 RMK AO2 T02190151
KDED 052210Z AUTO 10005KT 10SM BKN055 22/15 A3013 RMK AO2 T02240151
KDED 052150Z AUTO 09008KT 10SM BKN055 23/15 A3012 RMK AO2 T02270151
KDED 052130Z AUTO 09007KT 10SM OVC055 24/15 A3012 RMK AO2 T02430150